Time;durP1;ratioP1;P1;durP2;ratioP2;P2;SDS_P1;SDS_P2;PMS_P1;PMS_P2;Temp;Humidity;BMP_temperature;BMP_pressure;BME280_temperature;BME280_humidity;BME280_pressure;Samples;Min_cycle;Max_cycle;Signal;HPM_P1;HPM_P2
2021/12/15 00:01:44;;;;;;;11.07;9.97;;;8.10;48.80;;;;;;10273233;28;20762;-73
2021/12/15 00:06:47;;;;;;;10.73;9.70;;;8.20;49.60;;;;;;10276388;28;20722;-73
2021/12/15 00:11:50;;;;;;;13.00;11.60;;;8.20;49.00;;;;;;10275412;28;20236;-73
2021/12/15 00:16:55;;;;;;;10.13;9.07;;;8.20;48.80;;;;;;10272463;28;20234;-73
2021/12/15 00:21:58;;;;;;;14.13;12.63;;;8.20;48.80;;;;;;10272773;28;20354;-73
2021/12/15 00:27:02;;;;;;;12.77;11.40;;;8.20;48.80;;;;;;10276203;28;20302;-73
2021/12/15 00:32:08;;;;;;;11.07;9.97;;;8.20;48.80;;;;;;10275698;28;20250;-72
2021/12/15 00:37:11;;;;;;;12.50;11.20;;;8.20;48.70;;;;;;10269021;28;20403;-72
2021/12/15 00:42:15;;;;;;;12.83;11.50;;;8.20;48.80;;;;;;10271084;28;20258;-73
2021/12/15 00:47:19;;;;;;;11.43;10.13;;;8.20;48.70;;;;;;10275082;28;20768;-72
2021/12/15 00:52:23;;;;;;;12.10;10.87;;;8.20;48.80;;;;;;10274696;28;20583;-73
2021/12/15 00:57:26;;;;;;;11.37;10.17;;;8.20;48.90;;;;;;10272869;28;20239;-73
2021/12/15 01:02:31;;;;;;;11.57;10.37;;;8.20;48.80;;;;;;10275129;28;20240;-73
2021/12/15 01:07:34;;;;;;;13.03;10.87;;;8.20;48.70;;;;;;10274588;28;20255;-73
2021/12/15 01:12:51;;;;;;;10.73;9.63;;;8.30;48.70;;;;;;10272980;28;20736;-72
2021/12/15 01:23:26;;;;;;;13.57;11.53;;;8.20;48.70;;;;;;10273243;28;20741;-72
2021/12/15 01:28:30;;;;;;;12.17;10.43;;;8.20;48.60;;;;;;10272114;28;20231;-73
2021/12/15 01:33:36;;;;;;;11.43;10.17;;;8.20;48.70;;;;;;10274995;28;20234;-73
2021/12/15 01:38:42;;;;;;;12.17;10.53;;;8.10;48.70;;;;;;10271196;28;20232;-73
2021/12/15 01:46:52;;;;;;;9.93;8.93;;;8.10;48.70;;;;;;10270641;28;20231;-73
2021/12/15 01:49:20;;;;;;;11.67;10.47;;;8.10;48.80;;;;;;10271887;28;20227;-72
2021/12/15 01:54:25;;;;;;;11.93;10.63;;;8.10;48.90;;;;;;10273483;28;20240;-72
2021/12/15 01:59:29;;;;;;;12.07;10.83;;;8.10;49.00;;;;;;10272819;28;20913;-72
2021/12/15 02:04:34;;;;;;;11.03;9.93;;;8.10;49.00;;;;;;10270685;28;20236;-73
2021/12/15 02:10:01;;;;;;;13.80;11.30;;;8.10;49.00;;;;;;10274038;28;20232;-73
2021/12/15 02:15:27;;;;;;;12.50;10.77;;;8.10;49.00;;;;;;10269114;28;20227;-73
2021/12/15 02:20:41;;;;;;;12.53;11.17;;;8.10;49.00;;;;;;10270722;28;20243;-73
2021/12/15 02:25:46;;;;;;;11.83;10.30;;;8.10;49.00;;;;;;10270637;28;20690;-73
2021/12/15 02:30:55;;;;;;;10.80;9.30;;;8.10;48.90;;;;;;10267229;28;20231;-72
2021/12/15 02:41:25;;;;;;;10.67;9.57;;;8.10;49.20;;;;;;10269979;28;20232;-72
2021/12/15 02:46:29;;;;;;;11.43;9.97;;;8.10;49.20;;;;;;10266610;28;20308;-72
2021/12/15 02:51:36;;;;;;;11.23;10.03;;;8.10;49.10;;;;;;10271533;28;20720;-72
2021/12/15 02:56:39;;;;;;;12.03;10.50;;;8.20;49.00;;;;;;10269750;28;20235;-72
2021/12/15 03:01:57;;;;;;;10.93;9.30;;;8.20;49.00;;;;;;10272986;28;20235;-72
2021/12/15 03:07:10;;;;;;;10.90;9.70;;;8.20;49.10;;;;;;10267930;28;20239;-73
2021/12/15 03:17:34;;;;;;;11.27;10.17;;;8.20;49.10;;;;;;10267743;28;20717;-73
2021/12/15 03:22:39;;;;;;;12.33;10.27;;;8.30;49.10;;;;;;10271669;28;20662;-73
2021/12/15 03:33:30;;;;;;;9.43;8.30;;;8.30;49.00;;;;;;10270879;28;20228;-72
2021/12/15 03:38:35;;;;;;;9.97;8.57;;;8.30;49.00;;;;;;10270357;28;20695;-73
2021/12/15 03:43:41;;;;;;;10.43;9.33;;;8.40;49.00;;;;;;10269313;28;20634;-73
2021/12/15 03:48:45;;;;;;;10.23;9.23;;;8.40;49.00;;;;;;10266048;28;20278;-73
2021/12/15 03:53:50;;;;;;;10.53;9.43;;;8.40;49.00;;;;;;10266517;28;20240;-68
2021/12/15 03:58:55;;;;;;;9.90;8.97;;;8.40;49.00;;;;;;10264506;28;20241;-68
2021/12/15 04:04:03;;;;;;;10.03;8.93;;;8.40;49.00;;;;;;10270332;28;20248;-68
2021/12/15 04:09:10;;;;;;;10.57;9.47;;;8.40;48.80;;;;;;10275021;28;20235;-68
2021/12/15 04:14:20;;;;;;;9.50;8.50;;;8.40;48.80;;;;;;10277261;28;20220;-69
2021/12/15 04:19:23;;;;;;;10.63;9.53;;;8.40;48.90;;;;;;10277235;28;20628;-69
2021/12/15 04:24:28;;;;;;;12.47;10.77;;;8.40;48.80;;;;;;10279928;28;20235;-68
2021/12/15 04:29:32;;;;;;;12.97;10.60;;;8.40;48.80;;;;;;10276407;28;20239;-68
2021/12/15 04:34:35;;;;;;;12.17;10.17;;;8.40;48.70;;;;;;10273214;28;20242;-68
2021/12/15 04:39:39;;;;;;;13.63;11.50;;;8.40;48.60;;;;;;10272962;28;20274;-69
2021/12/15 04:44:49;;;;;;;13.70;10.23;;;8.40;48.80;;;;;;10274585;28;20230;-69
2021/12/15 04:49:55;;;;;;;9.93;8.30;;;8.40;48.90;;;;;;10271089;28;20266;-68
2021/12/15 04:55:01;;;;;;;11.80;10.60;;;8.40;49.00;;;;;;10273239;28;20231;-68
2021/12/15 05:00:08;;;;;;;12.20;9.73;;;8.40;48.90;;;;;;10273968;28;20604;-68
2021/12/15 05:05:13;;;;;;;11.60;10.40;;;8.40;48.90;;;;;;10274757;28;20600;-69
2021/12/15 05:10:19;;;;;;;11.40;9.50;;;8.40;48.90;;;;;;10273836;28;20246;-68
2021/12/15 05:15:22;;;;;;;10.50;9.13;;;8.50;49.00;;;;;;10270911;28;20239;-72
2021/12/15 05:20:26;;;;;;;11.13;9.60;;;8.50;49.00;;;;;;10273085;28;20236;-71
2021/12/15 05:25:31;;;;;;;10.70;9.10;;;8.50;49.00;;;;;;10273006;28;20584;-71
2021/12/15 05:30:35;;;;;;;11.80;10.00;;;8.50;48.90;;;;;;10274233;28;20553;-71
2021/12/15 05:35:38;;;;;;;11.80;9.90;;;8.50;48.90;;;;;;10269447;28;20734;-71
2021/12/15 05:40:43;;;;;;;11.13;9.83;;;8.50;49.70;;;;;;10269859;28;20748;-71
2021/12/15 05:45:48;;;;;;;11.33;10.13;;;8.50;49.00;;;;;;10272734;28;20582;-68
2021/12/15 05:50:52;;;;;;;11.80;10.27;;;8.50;48.90;;;;;;10273486;28;20227;-68
2021/12/15 05:55:56;;;;;;;10.07;9.00;;;8.50;48.90;;;;;;10271090;28;20235;-68
2021/12/15 06:01:00;;;;;;;10.57;9.47;;;8.50;48.90;;;;;;10271750;28;20235;-70
2021/12/15 06:06:03;;;;;;;12.47;11.17;;;8.50;48.90;;;;;;10275940;28;20239;-70
2021/12/15 06:11:08;;;;;;;9.93;7.60;;;8.50;48.90;;;;;;10266986;28;20261;-71
2021/12/15 06:16:11;;;;;;;11.63;9.20;;;8.50;50.10;;;;;;10268096;28;20438;-68
2021/12/15 06:21:15;;;;;;;10.20;9.10;;;8.60;50.30;;;;;;10266933;28;20266;-69
2021/12/15 06:26:20;;;;;;;10.93;8.87;;;8.60;49.70;;;;;;10273122;28;20604;-73
2021/12/15 06:31:24;;;;;;;11.33;10.13;;;8.60;49.30;;;;;;10268614;28;20258;-73
2021/12/15 06:36:30;;;;;;;12.30;9.77;;;8.60;48.70;;;;;;10270758;28;20227;-71
2021/12/15 06:41:36;;;;;;;12.80;11.37;;;8.60;48.80;;;;;;10263064;28;20282;-68
2021/12/15 06:47:02;;;;;;;13.67;11.47;;;8.50;49.00;;;;;;10267967;28;20234;-73
2021/12/15 07:02:45;;;;;;;12.77;10.33;;;8.50;49.20;;;;;;10256985;28;20763;-71
2021/12/15 07:07:53;;;;;;;14.80;11.57;;;8.50;49.70;;;;;;10265331;28;20330;-71
2021/12/15 07:12:59;;;;;;;15.00;12.87;;;8.50;49.00;;;;;;10269819;28;20616;-71
2021/12/15 07:18:04;;;;;;;14.17;12.20;;;8.50;49.00;;;;;;10267898;28;20231;-70
2021/12/15 07:23:13;;;;;;;12.93;11.00;;;8.50;49.00;;;;;;10265609;28;20235;-71
2021/12/15 07:28:20;;;;;;;14.90;11.93;;;8.50;49.10;;;;;;10268529;28;20318;-71
2021/12/15 07:33:27;;;;;;;15.47;13.07;;;8.60;49.00;;;;;;10269237;28;20760;-68
2021/12/15 07:38:30;;;;;;;15.27;12.93;;;8.50;49.00;;;;;;10267141;28;20316;-73
2021/12/15 07:43:35;;;;;;;14.03;12.23;;;8.50;48.70;;;;;;10273490;28;20235;-72
2021/12/15 07:48:41;;;;;;;13.93;11.80;;;8.50;49.00;;;;;;10271583;28;20760;-73
2021/12/15 07:53:44;;;;;;;15.27;12.97;;;8.40;49.00;;;;;;10272084;28;20714;-73
2021/12/15 07:58:49;;;;;;;14.67;12.77;;;8.50;49.00;;;;;;10266381;28;20257;-73
2021/12/15 08:03:55;;;;;;;16.67;14.77;;;8.50;49.20;;;;;;10271215;28;20231;-73
2021/12/15 08:08:58;;;;;;;18.00;15.23;;;8.40;49.10;;;;;;10269677;28;20231;-73
2021/12/15 08:14:05;;;;;;;19.27;15.80;;;8.40;49.00;;;;;;10272764;28;20223;-71
2021/12/15 08:19:10;;;;;;;17.40;14.57;;;8.30;49.20;;;;;;10270638;28;20246;-73
2021/12/15 08:24:13;;;;;;;16.37;14.67;;;8.50;49.40;;;;;;10273876;28;20227;-73
2021/12/15 08:29:18;;;;;;;17.13;14.07;;;8.50;49.30;;;;;;10272387;28;20231;-73
2021/12/15 08:34:21;;;;;;;15.13;12.13;;;8.50;49.40;;;;;;10272288;28;20231;-68
2021/12/15 08:39:27;;;;;;;14.30;12.27;;;8.60;49.30;;;;;;10272930;28;20246;-69
2021/12/15 08:44:32;;;;;;;13.73;12.07;;;8.60;49.20;;;;;;10272465;28;20602;-68
2021/12/15 08:49:36;;;;;;;13.40;11.27;;;8.60;49.10;;;;;;10273438;28;20227;-68
2021/12/15 08:54:39;;;;;;;15.17;13.57;;;8.60;49.30;;;;;;10267820;28;20232;-68
2021/12/15 08:59:43;;;;;;;16.03;12.97;;;8.60;49.30;;;;;;10273992;28;20254;-68
2021/12/15 09:04:47;;;;;;;18.23;15.57;;;8.60;49.30;;;;;;10273836;28;20749;-68
2021/12/15 09:09:50;;;;;;;21.27;18.13;;;8.60;49.40;;;;;;10274656;28;20231;-68
2021/12/15 09:14:57;;;;;;;21.57;16.80;;;8.60;49.40;;;;;;10270930;28;20235;-68
2021/12/15 09:20:04;;;;;;;17.37;14.07;;;8.60;49.50;;;;;;10271148;28;20232;-68
2021/12/15 09:25:09;;;;;;;19.33;15.47;;;8.60;49.50;;;;;;10272150;28;20224;-68
2021/12/15 09:30:22;;;;;;;16.97;14.63;;;8.60;49.30;;;;;;10267942;28;20235;-68
2021/12/15 09:35:32;;;;;;;16.60;13.80;;;8.60;49.50;;;;;;10272317;28;20224;-68
2021/12/15 09:40:35;;;;;;;15.77;12.60;;;8.60;49.60;;;;;;10271956;28;20232;-68
2021/12/15 09:45:48;;;;;;;13.90;12.37;;;8.70;49.50;;;;;;10268542;28;20227;-68
2021/12/15 09:56:36;;;;;;;13.57;11.40;;;8.60;49.40;;;;;;10256390;28;20586;-68
2021/12/15 10:02:09;;;;;;;13.17;11.07;;;8.60;49.60;;;;;;10272068;28;20232;-69
2021/12/15 10:07:23;;;;;;;13.17;11.67;;;8.60;49.90;;;;;;10270266;28;20334;-69
2021/12/15 10:17:22;;;;;;;13.77;11.80;;;8.70;49.70;;;;;;10271808;28;20243;-68
2021/12/15 10:18:02;;;;;;;12.13;10.83;;;8.70;49.80;;;;;;10269312;28;20714;-68
2021/12/15 10:23:12;;;;;;;13.63;11.40;;;8.70;49.70;;;;;;10266959;28;20224;-68
2021/12/15 10:28:18;;;;;;;13.33;11.50;;;8.70;49.90;;;;;;10272823;28;20235;-69
2021/12/15 10:33:28;;;;;;;10.37;9.33;;;8.80;50.00;;;;;;10263899;28;20272;-68
2021/12/15 10:38:32;;;;;;;14.07;12.27;;;8.80;50.20;;;;;;10263731;28;20241;-68
2021/12/15 10:43:41;;;;;;;13.20;11.83;;;8.90;50.10;;;;;;10267535;28;20241;-68
2021/12/15 10:48:49;;;;;;;11.40;10.20;;;8.90;50.10;;;;;;10265682;28;20688;-68
2021/12/15 10:53:55;;;;;;;14.17;12.67;;;9.00;50.00;;;;;;10262415;28;20228;-68
2021/12/15 10:59:01;;;;;;;13.23;11.90;;;9.00;49.90;;;;;;10261784;28;20742;-68
2021/12/15 11:04:21;;;;;;;12.57;11.27;;;9.10;50.00;;;;;;10264404;28;20231;-68
2021/12/15 11:09:31;;;;;;;14.27;12.73;;;9.10;50.00;;;;;;10267108;28;20242;-68
2021/12/15 11:14:37;;;;;;;14.50;13.00;;;9.10;49.80;;;;;;10265385;28;20227;-68
2021/12/15 11:19:50;;;;;;;11.30;10.20;;;9.10;49.80;;;;;;10266190;28;20310;-68
2021/12/15 11:24:56;;;;;;;11.13;10.10;;;9.10;49.80;;;;;;10265773;28;20713;-68
2021/12/15 11:30:00;;;;;;;9.17;8.20;;;9.10;49.90;;;;;;10264060;28;20444;-68
2021/12/15 11:35:07;;;;;;;10.13;9.13;;;9.20;50.40;;;;;;10269406;28;20224;-70
2021/12/15 11:40:11;;;;;;;9.73;8.67;;;9.20;50.10;;;;;;10269782;28;20244;-70
2021/12/15 11:45:14;;;;;;;7.67;7.07;;;9.30;50.00;;;;;;10269972;28;20238;-70
2021/12/15 11:50:22;;;;;;;8.10;7.40;;;9.30;49.60;;;;;;10264546;28;20603;-70
2021/12/15 11:55:28;;;;;;;7.50;6.83;;;9.30;50.00;;;;;;10268235;28;20228;-70
2021/12/15 12:00:35;;;;;;;7.13;6.47;;;9.30;49.40;;;;;;10268773;28;20609;-70
2021/12/15 12:05:40;;;;;;;3.87;3.57;;;9.30;49.10;;;;;;10268635;28;20223;-70
2021/12/15 12:10:48;;;;;;;4.57;4.17;;;9.30;48.70;;;;;;10267819;28;20246;-70
2021/12/15 12:15:55;;;;;;;3.27;3.07;;;9.30;48.80;;;;;;10260200;28;20673;-70
2021/12/15 12:21:02;;;;;;;2.90;2.70;;;9.30;48.60;;;;;;10255120;28;20235;-70
2021/12/15 12:26:10;;;;;;;3.03;2.83;;;9.40;48.50;;;;;;10255832;28;20234;-70
2021/12/15 12:31:17;;;;;;;3.60;3.40;;;9.40;48.40;;;;;;10260522;28;20235;-70
2021/12/15 12:36:27;;;;;;;3.30;3.00;;;9.40;48.20;;;;;;10265069;28;20228;-70
2021/12/15 12:41:37;;;;;;;3.73;3.43;;;9.40;47.80;;;;;;10267537;28;20231;-73
2021/12/15 12:46:47;;;;;;;4.63;3.93;;;9.40;48.20;;;;;;10262274;28;20250;-72
2021/12/15 13:02:48;;;;;;;3.00;2.80;;;9.40;47.80;;;;;;10266061;28;20228;-73
2021/12/15 13:07:55;;;;;;;2.63;2.43;;;9.40;47.60;;;;;;10263299;28;20235;-71
2021/12/15 13:13:12;;;;;;;2.30;2.20;;;9.30;47.50;;;;;;10266245;28;20239;-71
2021/12/15 13:18:17;;;;;;;3.00;2.80;;;9.30;47.00;;;;;;10264257;28;20223;-71
2021/12/15 13:23:40;;;;;;;2.80;2.60;;;9.30;47.90;;;;;;10270831;28;20269;-70
2021/12/15 13:28:49;;;;;;;2.90;2.70;;;9.30;47.30;;;;;;10266823;28;20635;-70
2021/12/15 13:33:56;;;;;;;2.57;2.40;;;9.40;48.00;;;;;;10264173;28;20227;-70
2021/12/15 13:39:07;;;;;;;3.33;3.13;;;9.40;47.90;;;;;;10264292;28;20232;-70
2021/12/15 13:44:27;;;;;;;3.37;3.07;;;9.50;47.30;;;;;;10268325;28;21024;-70
2021/12/15 13:49:42;;;;;;;2.90;2.70;;;9.50;47.30;;;;;;10264995;28;20238;-70
2021/12/15 13:55:19;;;;;;;2.13;2.03;;;9.50;47.60;;;;;;10268309;28;20327;-70
2021/12/15 14:00:39;;;;;;;2.13;2.03;;;9.50;46.40;;;;;;10259667;28;20235;-70
2021/12/15 14:05:46;;;;;;;1.90;1.80;;;9.50;46.80;;;;;;10263121;28;20253;-70
2021/12/15 14:10:57;;;;;;;2.60;2.40;;;9.50;47.10;;;;;;10264300;28;20246;-70
2021/12/15 14:16:01;;;;;;;2.10;1.90;;;9.40;46.70;;;;;;10261649;28;21049;-70
2021/12/15 14:21:12;;;;;;;2.43;1.70;;;9.40;47.00;;;;;;10267583;28;20329;-73
2021/12/15 14:26:19;;;;;;;1.63;1.53;;;9.40;46.90;;;;;;10271104;28;20227;-73
2021/12/15 14:31:27;;;;;;;1.40;1.30;;;9.30;47.80;;;;;;10268379;28;20250;-73
2021/12/15 14:36:34;;;;;;;1.50;1.40;;;9.30;47.00;;;;;;10267311;28;20247;-73
2021/12/15 14:41:42;;;;;;;2.00;1.90;;;9.40;46.80;;;;;;10263312;28;20239;-73
2021/12/15 14:46:49;;;;;;;3.03;2.83;;;9.40;46.80;;;;;;10259359;28;20238;-73
2021/12/15 14:51:56;;;;;;;3.63;3.33;;;9.40;46.80;;;;;;10258411;28;20242;-73
2021/12/15 14:57:02;;;;;;;3.50;3.30;;;9.40;47.20;;;;;;10260945;28;20235;-73
2021/12/15 15:02:10;;;;;;;3.33;3.13;;;9.40;47.50;;;;;;10258497;28;20725;-73
2021/12/15 15:07:17;;;;;;;3.60;3.40;;;9.40;47.50;;;;;;10260860;28;20227;-74
2021/12/15 15:12:24;;;;;;;3.50;3.30;;;9.40;47.50;;;;;;10261198;28;20236;-73
2021/12/15 15:17:35;;;;;;;4.10;3.80;;;9.50;47.50;;;;;;10265340;28;20239;-73
2021/12/15 15:22:38;;;;;;;3.37;3.17;;;9.50;47.30;;;;;;10261567;28;20239;-73
2021/12/15 15:27:45;;;;;;;3.50;3.30;;;9.50;47.30;;;;;;10264062;28;20903;-73
2021/12/15 15:32:53;;;;;;;3.80;3.60;;;9.40;47.20;;;;;;10265194;28;20227;-73
2021/12/15 15:37:59;;;;;;;3.20;3.00;;;9.40;48.70;;;;;;10264368;28;20227;-73
2021/12/15 15:43:05;;;;;;;3.03;2.83;;;9.50;48.10;;;;;;10264094;28;20234;-73
2021/12/15 15:48:14;;;;;;;3.50;3.30;;;9.50;47.70;;;;;;10266218;28;20592;-73
2021/12/15 15:53:18;;;;;;;3.40;3.20;;;9.50;47.30;;;;;;10266539;28;20753;-71
2021/12/15 15:58:21;;;;;;;3.20;3.00;;;9.50;47.40;;;;;;10262887;28;20236;-71
2021/12/15 16:03:29;;;;;;;3.07;2.87;;;9.50;47.50;;;;;;10272651;28;20247;-71
2021/12/15 16:08:37;;;;;;;3.33;3.13;;;9.50;47.20;;;;;;10272583;28;20223;-71
2021/12/15 16:13:42;;;;;;;3.43;3.23;;;9.50;47.30;;;;;;10276374;28;20235;-71
2021/12/15 16:18:54;;;;;;;4.37;3.80;;;9.50;47.50;;;;;;10253011;28;20325;-71
2021/12/15 16:23:59;;;;;;;3.80;3.60;;;9.50;47.30;;;;;;10272865;28;20232;-71
2021/12/15 16:29:12;;;;;;;5.00;4.60;;;9.50;47.30;;;;;;10276304;28;20238;-71
2021/12/15 16:34:31;;;;;;;4.40;4.10;;;9.50;47.20;;;;;;10274834;28;20247;-71
2021/12/15 16:39:42;;;;;;;4.23;3.97;;;9.50;47.00;;;;;;10270455;28;20234;-71
2021/12/15 16:44:51;;;;;;;4.63;4.33;;;9.50;47.10;;;;;;10275825;28;20235;-68
2021/12/15 16:49:57;;;;;;;5.80;5.30;;;9.50;47.80;;;;;;10274523;28;20227;-69
2021/12/15 16:55:02;;;;;;;5.60;5.13;;;9.50;46.90;;;;;;10272655;28;20236;-68
2021/12/15 17:00:10;;;;;;;6.33;5.73;;;9.40;46.90;;;;;;10270776;28;20258;-68
2021/12/15 17:05:24;;;;;;;7.50;6.80;;;9.40;46.60;;;;;;10273629;28;20238;-69
2021/12/15 17:10:34;;;;;;;14.07;12.67;;;9.30;46.40;;;;;;10275930;28;20726;-71
2021/12/15 17:15:53;;;;;;;9.90;9.00;;;9.30;47.30;;;;;;10275242;28;20229;-71
2021/12/15 17:21:16;;;;;;;7.53;6.83;;;9.20;46.20;;;;;;10274938;28;20239;-71
2021/12/15 17:26:24;;;;;;;6.83;6.23;;;9.20;46.60;;;;;;10274202;28;20238;-71
2021/12/15 17:31:31;;;;;;;6.70;6.20;;;9.20;46.90;;;;;;10273469;28;20239;-71
2021/12/15 17:36:39;;;;;;;7.70;7.10;;;9.10;46.70;;;;;;10274881;28;20552;-68
2021/12/15 17:41:44;;;;;;;6.20;5.70;;;9.10;46.60;;;;;;10267644;28;20236;-68
2021/12/15 17:46:59;;;;;;;5.00;4.60;;;9.10;46.80;;;;;;10273359;28;20334;-68
2021/12/15 17:52:29;;;;;;;5.73;5.33;;;9.00;46.10;;;;;;10270552;28;20694;-70
2021/12/15 17:57:35;;;;;;;5.97;5.57;;;9.00;46.40;;;;;;10252513;28;20238;-71
2021/12/15 18:02:39;;;;;;;5.60;5.20;;;9.00;47.00;;;;;;10271279;28;20231;-71
2021/12/15 18:07:44;;;;;;;6.20;5.80;;;8.90;47.20;;;;;;10271268;28;20234;-71
2021/12/15 18:12:47;;;;;;;5.70;5.30;;;8.90;47.20;;;;;;10271649;28;21598;-71
2021/12/15 18:17:51;;;;;;;7.37;6.77;;;8.90;47.50;;;;;;10271489;28;20238;-71
2021/12/15 18:22:57;;;;;;;7.10;6.50;;;9.00;47.80;;;;;;10272239;28;20232;-71
2021/12/15 18:28:01;;;;;;;5.67;5.27;;;9.00;47.50;;;;;;10270612;28;20257;-71
2021/12/15 18:33:07;;;;;;;6.37;5.87;;;9.10;47.50;;;;;;10270028;28;20238;-71
2021/12/15 18:38:13;;;;;;;7.77;7.17;;;9.10;47.30;;;;;;10267689;28;20227;-71
2021/12/15 18:43:18;;;;;;;7.17;6.67;;;9.20;47.10;;;;;;10271292;28;20250;-71
2021/12/15 18:48:22;;;;;;;7.63;7.10;;;9.20;47.20;;;;;;10269216;28;20243;-71
2021/12/15 18:53:29;;;;;;;7.37;6.83;;;9.20;47.30;;;;;;10270451;28;20262;-71
2021/12/15 18:58:33;;;;;;;6.93;6.43;;;9.20;47.10;;;;;;10271697;28;20722;-71
2021/12/15 19:03:36;;;;;;;7.50;6.90;;;9.20;47.30;;;;;;10271155;28;20227;-71
2021/12/15 19:08:42;;;;;;;8.37;7.77;;;9.20;47.30;;;;;;10271409;28;20231;-71
2021/12/15 19:13:45;;;;;;;8.40;7.77;;;9.20;47.20;;;;;;10271370;28;20232;-68
2021/12/15 19:18:49;;;;;;;8.00;7.40;;;9.20;47.40;;;;;;10270946;28;20255;-68
2021/12/15 19:23:54;;;;;;;7.70;7.20;;;9.20;47.50;;;;;;10271111;28;20224;-68
2021/12/15 19:29:01;;;;;;;7.67;7.07;;;9.20;47.30;;;;;;10268861;28;20709;-73
2021/12/15 19:34:07;;;;;;;6.93;6.43;;;9.20;47.40;;;;;;10269498;28;20242;-73
2021/12/15 19:39:14;;;;;;;8.40;7.70;;;9.30;47.60;;;;;;10266946;28;20231;-73
2021/12/15 19:44:22;;;;;;;8.40;7.80;;;9.30;47.50;;;;;;10270829;28;20228;-73
2021/12/15 19:49:29;;;;;;;8.03;7.37;;;9.30;48.30;;;;;;10265649;28;20356;-70
2021/12/15 19:54:34;;;;;;;8.23;7.63;;;9.40;47.90;;;;;;10266248;28;20254;-70
2021/12/15 19:59:38;;;;;;;8.47;7.77;;;9.40;47.50;;;;;;10264043;28;20232;-70
2021/12/15 20:04:44;;;;;;;8.63;7.87;;;9.40;47.60;;;;;;10261862;28;20238;-69
2021/12/15 20:09:49;;;;;;;9.53;8.73;;;9.40;47.10;;;;;;10261347;28;20246;-70
2021/12/15 20:14:53;;;;;;;9.20;8.50;;;9.40;47.20;;;;;;10260996;28;20250;-70
2021/12/15 20:20:01;;;;;;;10.20;9.30;;;9.40;47.30;;;;;;10262570;28;20263;-70
2021/12/15 20:25:09;;;;;;;9.40;8.70;;;9.30;47.00;;;;;;10258166;28;20860;-70
2021/12/15 20:30:14;;;;;;;8.40;7.70;;;9.30;47.00;;;;;;10263781;28;20725;-70
2021/12/15 20:35:21;;;;;;;8.60;7.90;;;9.30;47.00;;;;;;10261915;28;20238;-70
2021/12/15 20:40:26;;;;;;;8.97;8.27;;;9.30;47.00;;;;;;10260368;28;20240;-70
2021/12/15 20:45:30;;;;;;;9.33;8.63;;;9.20;47.00;;;;;;10261257;28;20765;-70
2021/12/15 20:50:34;;;;;;;7.87;7.27;;;9.20;47.10;;;;;;10258909;28;20278;-70
2021/12/15 20:55:39;;;;;;;8.60;8.00;;;9.20;47.10;;;;;;10264451;28;20235;-70
2021/12/15 21:00:45;;;;;;;10.27;9.47;;;9.20;47.20;;;;;;10261093;28;20227;-70
2021/12/15 21:05:53;;;;;;;11.00;10.07;;;9.20;47.20;;;;;;10261233;28;20246;-70
2021/12/15 21:11:01;;;;;;;9.33;8.60;;;9.20;47.10;;;;;;10266482;28;20239;-70
2021/12/15 21:16:06;;;;;;;11.77;10.77;;;9.20;47.30;;;;;;10264390;28;20228;-70
2021/12/15 21:21:13;;;;;;;11.83;10.83;;;9.20;47.40;;;;;;10262953;28;20802;-70
2021/12/15 21:26:21;;;;;;;9.93;9.13;;;9.20;47.40;;;;;;10259046;28;20234;-70
2021/12/15 21:31:27;;;;;;;10.10;9.30;;;9.20;47.30;;;;;;10259647;28;20243;-70
2021/12/15 21:36:30;;;;;;;8.87;8.23;;;9.20;47.00;;;;;;10260821;28;20234;-70
2021/12/15 21:41:36;;;;;;;10.90;10.00;;;9.20;47.20;;;;;;10258006;28;20239;-70
2021/12/15 21:46:39;;;;;;;10.87;9.97;;;9.20;47.30;;;;;;10257085;28;20271;-70
2021/12/15 21:51:45;;;;;;;10.67;9.83;;;9.20;47.30;;;;;;10265181;28;20239;-71
2021/12/15 21:56:50;;;;;;;9.30;8.50;;;9.20;47.00;;;;;;10271151;28;20236;-73
2021/12/15 22:01:53;;;;;;;9.40;8.60;;;9.20;47.00;;;;;;10269213;28;20254;-73
2021/12/15 22:06:58;;;;;;;8.43;7.73;;;9.10;47.10;;;;;;10272010;28;20228;-73
2021/12/15 22:12:03;;;;;;;10.00;9.10;;;9.10;47.20;;;;;;10269798;28;20242;-72
2021/12/15 22:17:06;;;;;;;12.53;11.53;;;9.10;47.20;;;;;;10272623;28;20663;-73
2021/12/15 22:22:09;;;;;;;13.40;12.30;;;9.10;47.30;;;;;;10274688;28;20242;-72
2021/12/15 22:27:14;;;;;;;13.17;12.07;;;9.10;47.00;;;;;;10273515;28;20230;-72
2021/12/15 22:32:25;;;;;;;13.20;12.10;;;9.20;47.10;;;;;;10269778;28;20267;-73
2021/12/15 22:37:28;;;;;;;13.77;12.67;;;9.20;47.00;;;;;;10272008;28;20231;-73
2021/12/15 22:42:34;;;;;;;13.23;12.03;;;9.20;47.20;;;;;;10267404;28;20334;-73
2021/12/15 22:47:41;;;;;;;12.47;11.47;;;9.10;47.00;;;;;;10271714;28;20845;-73
2021/12/15 22:52:46;;;;;;;11.60;10.60;;;9.10;47.10;;;;;;10270980;28;20235;-73
2021/12/15 22:57:51;;;;;;;13.60;12.50;;;9.10;47.00;;;;;;10268612;28;20876;-73
2021/12/15 23:02:56;;;;;;;14.03;12.70;;;9.10;46.90;;;;;;10271606;28;20724;-73
2021/12/15 23:08:00;;;;;;;12.30;11.30;;;9.10;46.90;;;;;;10268051;28;20231;-73
2021/12/15 23:13:05;;;;;;;12.63;11.50;;;9.10;47.00;;;;;;10269081;28;20230;-72
2021/12/15 23:18:12;;;;;;;11.93;10.93;;;9.10;47.00;;;;;;10264718;28;20254;-73
2021/12/15 23:23:25;;;;;;;11.67;10.57;;;9.10;47.00;;;;;;10271340;28;20963;-73
2021/12/15 23:28:34;;;;;;;10.80;9.90;;;9.10;47.00;;;;;;10270336;28;20235;-73
2021/12/15 23:33:38;;;;;;;10.00;9.17;;;9.20;47.10;;;;;;10269017;28;20239;-73
2021/12/15 23:38:52;;;;;;;11.70;10.70;;;9.20;47.30;;;;;;10270731;28;20240;-73
2021/12/15 23:54:51;;;;;;;11.83;10.83;;;9.10;46.80;;;;;;10271311;28;20327;-73
